createdAt,value
2018-12-04T00:00:56.945Z,7.94
2018-12-04T00:03:26.279Z,7.93
2018-12-04T00:05:55.748Z,7.96
2018-12-04T00:08:25.178Z,7.98
2018-12-04T00:10:54.562Z,7.98
2018-12-04T00:13:24.071Z,7.99
2018-12-04T00:15:54.495Z,7.98
2018-12-04T00:18:24.093Z,7.98
2018-12-04T00:20:53.634Z,7.98
2018-12-04T00:23:23.041Z,7.98
2018-12-04T00:25:52.460Z,7.99
2018-12-04T00:28:26.170Z,8.02
2018-12-04T00:30:59.001Z,8.03
2018-12-04T00:33:28.527Z,8.02
2018-12-04T00:35:58.324Z,7.99
2018-12-04T00:38:27.730Z,7.97
2018-12-04T00:40:57.073Z,7.95
2018-12-04T00:43:26.528Z,7.89
2018-12-04T00:45:56.048Z,7.82
2018-12-04T00:48:25.619Z,7.80
2018-12-04T00:50:54.930Z,7.76
2018-12-04T00:53:24.413Z,7.72
2018-12-04T00:55:53.924Z,7.69
2018-12-04T00:58:23.316Z,7.68
2018-12-04T01:00:52.759Z,7.64
2018-12-04T01:03:22.323Z,7.62
2018-12-04T01:05:52.783Z,7.65
2018-12-04T01:08:22.184Z,7.63
2018-12-04T01:10:51.559Z,7.67
2018-12-04T01:13:20.817Z,7.65
2018-12-04T01:15:50.385Z,7.67
2018-12-04T01:18:19.796Z,7.66
2018-12-04T01:20:49.046Z,7.63
2018-12-04T01:23:18.432Z,7.62
2018-12-04T01:25:47.880Z,7.63
2018-12-04T01:28:17.234Z,7.63
2018-12-04T01:30:46.494Z,7.59
2018-12-04T01:33:15.806Z,7.54
2018-12-04T01:35:45.178Z,7.57
2018-12-04T01:38:14.497Z,7.53
2018-12-04T01:40:43.820Z,7.50
2018-12-04T01:43:13.244Z,7.52
2018-12-04T01:45:42.500Z,7.53
2018-12-04T01:48:12.112Z,7.56
2018-12-04T01:50:41.410Z,7.52
2018-12-04T01:53:10.986Z,7.49
2018-12-04T01:55:40.418Z,7.47
2018-12-04T01:58:09.782Z,7.41
2018-12-04T02:00:39.264Z,7.36
2018-12-04T02:03:08.758Z,7.35
2018-12-04T02:05:38.441Z,7.34
2018-12-04T02:08:07.870Z,7.32
2018-12-04T02:10:37.206Z,7.29
2018-12-04T02:13:06.742Z,7.31
2018-12-04T02:15:36.050Z,7.35
2018-12-04T02:18:05.397Z,7.34
2018-12-04T02:20:35.102Z,7.39
2018-12-04T02:23:05.018Z,7.47
2018-12-04T02:25:34.307Z,7.52
2018-12-04T02:28:03.658Z,7.57
2018-12-04T02:30:33.064Z,7.63
2018-12-04T02:33:02.320Z,7.65
2018-12-04T02:35:31.742Z,7.65
2018-12-04T02:38:01.232Z,7.67
2018-12-04T02:40:30.554Z,7.70
2018-12-04T02:43:00.071Z,7.66
2018-12-04T02:45:29.632Z,7.65
2018-12-04T02:47:59.131Z,7.61
2018-12-04T02:50:28.402Z,7.60
2018-12-04T02:52:57.685Z,7.55
2018-12-04T02:55:27.020Z,7.45
2018-12-04T02:57:56.350Z,7.38
2018-12-04T03:00:25.785Z,7.33
2018-12-04T03:02:55.156Z,7.29
2018-12-04T03:05:24.685Z,7.27
2018-12-04T03:07:54.167Z,7.26
2018-12-04T03:10:23.428Z,7.23
2018-12-04T03:12:52.750Z,7.20
2018-12-04T03:15:22.189Z,7.18
2018-12-04T03:17:51.660Z,7.12
2018-12-04T03:20:21.035Z,7.10
2018-12-04T03:22:50.508Z,7.07
2018-12-04T03:25:19.748Z,7.02
2018-12-04T03:27:49.108Z,6.97
2018-12-04T03:30:18.655Z,6.94
2018-12-04T03:32:48.043Z,6.91
2018-12-04T03:35:17.468Z,6.87
2018-12-04T03:37:46.777Z,6.85
2018-12-04T03:40:16.113Z,6.82
2018-12-04T03:42:45.664Z,6.77
2018-12-04T03:45:15.255Z,6.77
2018-12-04T03:47:44.632Z,6.74
2018-12-04T03:50:14.111Z,6.68
2018-12-04T03:52:43.473Z,6.66
2018-12-04T03:55:13.144Z,6.62
2018-12-04T03:57:42.837Z,6.60
2018-12-04T04:00:12.273Z,6.58
2018-12-04T04:02:41.634Z,6.54
2018-12-04T04:05:11.173Z,6.50
2018-12-04T04:07:40.824Z,6.50
2018-12-04T04:10:10.256Z,6.48
2018-12-04T04:12:39.633Z,6.48
2018-12-04T04:15:09.445Z,6.49
2018-12-04T04:17:39.317Z,6.48
2018-12-04T04:20:08.807Z,6.47
2018-12-04T04:22:38.222Z,6.48
2018-12-04T04:25:07.528Z,6.47
2018-12-04T04:27:36.859Z,6.40
2018-12-04T04:30:06.677Z,6.40
2018-12-04T04:32:36.130Z,6.39
2018-12-04T04:35:05.471Z,6.39
2018-12-04T04:37:34.837Z,6.36
2018-12-04T04:40:05.613Z,6.34
2018-12-04T04:42:35.018Z,6.32
2018-12-04T04:45:05.165Z,6.31
2018-12-04T04:47:34.519Z,6.31
2018-12-04T04:50:04.119Z,6.29
2018-12-04T04:52:33.581Z,6.29
2018-12-04T04:55:03.024Z,6.29
2018-12-04T04:57:32.593Z,6.29
2018-12-04T05:00:02.166Z,6.29
2018-12-04T05:02:31.568Z,6.26
2018-12-04T05:05:01.030Z,6.24
2018-12-04T05:07:31.347Z,6.24
2018-12-04T05:10:00.601Z,6.22
2018-12-04T05:12:29.881Z,6.20
2018-12-04T05:14:59.431Z,6.18
2018-12-04T05:17:28.696Z,6.18
2018-12-04T05:19:57.991Z,6.17
2018-12-04T05:22:27.435Z,6.15
2018-12-04T05:24:56.703Z,6.14
2018-12-04T05:27:26.321Z,6.12
2018-12-04T05:29:55.602Z,6.09
2018-12-04T05:32:24.905Z,6.07
2018-12-04T05:34:54.302Z,6.04
2018-12-04T05:37:23.689Z,6.02
2018-12-04T05:39:53.602Z,6.04
2018-12-04T05:42:22.969Z,6.00
2018-12-04T05:44:52.307Z,6.01
2018-12-04T05:47:21.949Z,6.00
2018-12-04T05:49:51.324Z,5.99
2018-12-04T05:52:20.648Z,5.96
2018-12-04T05:54:50.064Z,5.93
2018-12-04T05:57:19.302Z,5.92
2018-12-04T05:59:48.717Z,5.86
2018-12-04T06:02:18.040Z,5.86
2018-12-04T06:04:47.384Z,5.86
2018-12-04T06:07:17.097Z,5.85
2018-12-04T06:12:42.718Z,5.84
2018-12-04T06:15:12.089Z,5.85
2018-12-04T06:17:41.405Z,5.84
2018-12-04T06:20:11.319Z,5.82
2018-12-04T06:22:40.619Z,5.83
2018-12-04T06:25:09.928Z,5.83
2018-12-04T06:27:39.307Z,5.87
2018-12-04T06:30:08.930Z,5.90
2018-12-04T06:32:38.437Z,5.96
2018-12-04T06:35:07.837Z,6.01
2018-12-04T06:37:37.311Z,6.03
2018-12-04T06:40:06.677Z,6.00
2018-12-04T06:42:36.517Z,6.00
2018-12-04T06:45:06.420Z,5.98
2018-12-04T06:47:35.749Z,5.92
2018-12-04T06:50:07.626Z,5.89
2018-12-04T06:52:36.917Z,5.88
2018-12-04T06:55:07.528Z,5.84
2018-12-04T06:57:37.026Z,5.82
2018-12-04T07:00:07.822Z,5.80
2018-12-04T07:02:37.134Z,5.83
2018-12-04T07:05:06.883Z,5.84
2018-12-04T07:07:37.387Z,5.89
2018-12-04T07:10:07.041Z,5.97
2018-12-04T07:12:36.515Z,5.97
2018-12-04T07:15:06.038Z,5.96
2018-12-04T07:17:35.829Z,5.93
2018-12-04T07:20:06.259Z,5.90
2018-12-04T07:22:35.642Z,5.87
2018-12-04T07:25:06.136Z,5.86
2018-12-04T07:27:35.408Z,5.86
2018-12-04T07:30:07.572Z,5.83
2018-12-04T07:32:38.827Z,5.82
2018-12-04T07:35:09.266Z,5.78
2018-12-04T07:37:38.636Z,5.76
2018-12-04T07:40:08.380Z,5.70
2018-12-04T07:42:37.944Z,5.68
2018-12-04T07:45:07.607Z,5.62
2018-12-04T07:47:36.965Z,5.63
2018-12-04T07:50:06.958Z,5.67
2018-12-04T07:52:36.225Z,5.69
2018-12-04T07:55:05.976Z,5.69
2018-12-04T07:57:35.429Z,5.67
2018-12-04T08:00:06.537Z,5.65
2018-12-04T08:02:35.930Z,5.64
2018-12-04T08:05:06.137Z,5.61
2018-12-04T08:07:35.464Z,5.63
2018-12-04T08:10:05.873Z,5.65
2018-12-04T08:12:35.308Z,5.80
2018-12-04T08:15:04.895Z,6.00
2018-12-04T08:17:34.499Z,6.25
2018-12-04T08:20:04.248Z,6.48
2018-12-04T08:22:33.679Z,6.70
2018-12-04T08:25:02.925Z,6.79
2018-12-04T08:27:35.723Z,6.86
2018-12-04T08:30:06.714Z,6.93
2018-12-04T08:32:36.064Z,7.06
2018-12-04T08:35:07.644Z,7.28
2018-12-04T08:37:37.073Z,7.54
2018-12-04T08:40:07.997Z,7.88
2018-12-04T08:42:38.462Z,8.15
2018-12-04T08:45:08.783Z,8.31
2018-12-04T08:47:38.214Z,8.37
2018-12-04T08:50:08.520Z,8.58
2018-12-04T08:52:37.800Z,8.88
2018-12-04T08:55:07.248Z,9.00
2018-12-04T08:57:37.658Z,8.99
2018-12-04T09:00:08.426Z,9.06
2018-12-04T09:02:37.710Z,9.03
2018-12-04T09:05:09.698Z,8.95
2018-12-04T09:07:39.067Z,8.78
2018-12-04T09:10:08.401Z,8.31
2018-12-04T09:12:37.766Z,8.15
2018-12-04T09:15:07.424Z,7.92
2018-12-04T09:17:37.220Z,7.56
2018-12-04T09:20:07.932Z,7.40
2018-12-04T09:22:37.339Z,7.29
2018-12-04T09:25:06.775Z,7.17
2018-12-04T09:27:36.273Z,7.26
2018-12-04T09:30:07.511Z,7.28
2018-12-04T09:32:36.889Z,7.26
2018-12-04T09:35:06.367Z,7.29
2018-12-04T09:37:35.607Z,7.20
2018-12-04T09:40:06.964Z,7.11
2018-12-04T09:42:37.367Z,7.00
2018-12-04T09:45:08.266Z,6.93
2018-12-04T09:47:37.612Z,6.82
2018-12-04T09:50:08.331Z,6.84
2018-12-04T09:52:37.830Z,6.94
2018-12-04T09:55:07.332Z,6.98
2018-12-04T09:57:36.795Z,7.02
2018-12-04T10:00:07.916Z,7.04
2018-12-04T10:02:37.484Z,6.93
2018-12-04T10:05:07.283Z,6.83
2018-12-04T10:07:36.692Z,6.72
2018-12-04T10:10:07.729Z,6.65
2018-12-04T10:12:37.169Z,6.55
2018-12-04T10:15:07.585Z,6.59
2018-12-04T10:17:36.932Z,6.64
2018-12-04T10:20:08.567Z,6.68
2018-12-04T10:22:37.871Z,6.75
2018-12-04T10:25:07.248Z,6.72
2018-12-04T10:27:36.656Z,6.58
2018-12-04T10:30:07.859Z,6.48
2018-12-04T10:32:37.297Z,6.40
2018-12-04T10:35:06.641Z,6.32
2018-12-04T10:37:36.069Z,6.33
2018-12-04T10:40:08.563Z,6.32
2018-12-04T10:42:39.502Z,6.33
2018-12-04T10:45:09.448Z,6.21
2018-12-04T10:47:38.702Z,6.19
2018-12-04T10:50:09.069Z,6.20
2018-12-04T10:52:39.020Z,6.27
2018-12-04T10:55:08.619Z,6.33
2018-12-04T10:57:37.963Z,6.42
2018-12-04T11:00:12.879Z,6.46
2018-12-04T11:02:47.203Z,6.48
2018-12-04T11:05:18.174Z,6.48
2018-12-04T11:07:48.352Z,6.54
2018-12-04T11:10:17.687Z,6.59
2018-12-04T11:12:47.380Z,6.62
2018-12-04T11:15:17.303Z,6.66
2018-12-04T11:17:46.598Z,6.72
2018-12-04T11:20:16.110Z,6.76
2018-12-04T11:22:45.425Z,6.80
2018-12-04T11:25:14.832Z,6.83
2018-12-04T11:27:44.521Z,6.86
2018-12-04T11:30:14.285Z,6.93
2018-12-04T11:32:43.549Z,6.99
2018-12-04T11:35:13.641Z,7.01
2018-12-04T11:37:43.308Z,7.10
2018-12-04T11:40:12.731Z,7.17
2018-12-04T11:42:44.369Z,7.22
2018-12-04T11:45:14.117Z,7.28
2018-12-04T11:47:44.667Z,7.30
2018-12-04T11:50:14.276Z,7.33
2018-12-04T11:52:43.729Z,7.40
2018-12-04T11:55:12.984Z,7.43
2018-12-04T11:57:42.407Z,7.44
2018-12-04T12:00:45.593Z,7.44
2018-12-04T12:03:15.157Z,7.44
2018-12-04T12:05:44.467Z,7.43
2018-12-04T12:08:13.956Z,7.44
2018-12-04T12:10:43.661Z,7.51
2018-12-04T12:13:13.300Z,7.57
2018-12-04T12:15:42.673Z,7.68
2018-12-04T12:18:12.211Z,7.78
2018-12-04T12:20:41.555Z,7.85
2018-12-04T12:23:10.959Z,7.86
2018-12-04T12:25:40.377Z,7.71
2018-12-04T12:28:09.667Z,7.64
2018-12-04T12:30:39.255Z,7.31
2018-12-04T12:33:09.057Z,6.97
2018-12-04T12:35:38.652Z,6.79
2018-12-04T12:38:08.319Z,6.69
2018-12-04T12:40:37.620Z,6.71
2018-12-04T12:43:06.926Z,6.67
2018-12-04T12:45:36.260Z,6.60
2018-12-04T12:48:05.694Z,6.67
2018-12-04T12:50:35.359Z,6.75
2018-12-04T12:53:05.104Z,6.82
2018-12-04T12:55:34.471Z,6.89
2018-12-04T12:58:03.889Z,6.93
2018-12-04T13:00:33.195Z,6.97
2018-12-04T13:03:02.572Z,7.05
2018-12-04T13:05:32.023Z,7.09
2018-12-04T13:08:01.462Z,7.16
2018-12-04T13:10:30.824Z,7.20
2018-12-04T13:13:00.168Z,7.21
2018-12-04T13:15:29.504Z,7.23
2018-12-04T13:17:58.992Z,7.26
2018-12-04T13:20:28.320Z,7.28
2018-12-04T13:22:57.700Z,7.29
2018-12-04T13:25:27.639Z,7.28
2018-12-04T13:27:57.077Z,7.27
2018-12-04T13:30:26.457Z,7.28
2018-12-04T13:32:56.122Z,7.30
2018-12-04T13:35:25.528Z,7.26
2018-12-04T13:37:54.963Z,7.26
2018-12-04T13:40:24.865Z,7.24
2018-12-04T13:42:54.271Z,7.25
2018-12-04T13:45:23.631Z,7.26
2018-12-04T13:47:53.132Z,7.28
2018-12-04T13:50:22.522Z,7.24
2018-12-04T13:52:51.991Z,7.26
2018-12-04T13:55:22.500Z,7.24
2018-12-04T13:57:51.991Z,7.20
2018-12-04T14:00:21.311Z,7.19
2018-12-04T14:02:50.567Z,7.23
2018-12-04T14:05:19.849Z,7.26
2018-12-04T14:07:49.208Z,7.26
2018-12-04T14:10:18.752Z,7.28
2018-12-04T14:12:48.124Z,7.31
2018-12-04T14:15:17.958Z,7.31
2018-12-04T14:17:47.411Z,7.31
2018-12-04T14:20:16.644Z,7.26
2018-12-04T14:22:46.030Z,7.16
2018-12-04T14:25:15.654Z,7.13
2018-12-04T14:27:49.059Z,7.12
2018-12-04T14:30:16.490Z,7.10
2018-12-04T14:32:45.764Z,6.96
2018-12-04T14:35:15.213Z,6.93
2018-12-04T14:37:44.825Z,6.89
2018-12-04T14:40:14.301Z,6.82
2018-12-04T14:42:43.803Z,6.76
2018-12-04T14:45:13.784Z,6.74
2018-12-04T14:47:43.811Z,6.71
2018-12-04T14:50:13.518Z,6.70
2018-12-04T14:52:42.955Z,6.64
2018-12-04T14:55:12.685Z,6.68
2018-12-04T14:57:42.076Z,6.68
2018-12-04T15:00:11.893Z,6.62
2018-12-04T15:02:41.517Z,6.61
2018-12-04T15:05:11.076Z,6.55
2018-12-04T15:07:40.632Z,6.50
2018-12-04T15:10:10.908Z,6.50
2018-12-04T15:12:40.209Z,6.49
2018-12-04T15:15:10.683Z,6.42
2018-12-04T15:17:40.410Z,6.41
2018-12-04T15:20:10.080Z,6.42
2018-12-04T15:22:40.493Z,6.44
2018-12-04T15:25:10.508Z,6.44
2018-12-04T15:27:39.900Z,6.41
2018-12-04T15:30:09.228Z,6.42
2018-12-04T15:32:38.714Z,6.46
2018-12-04T15:35:08.276Z,6.47
2018-12-04T15:37:38.180Z,6.44
2018-12-04T15:40:08.393Z,6.39
2018-12-04T15:42:38.065Z,6.30
2018-12-04T15:45:07.688Z,6.28
2018-12-04T15:47:37.099Z,6.25
2018-12-04T15:50:08.525Z,6.25
2018-12-04T15:52:38.485Z,6.24
2018-12-04T15:55:08.599Z,6.21
2018-12-04T15:57:38.200Z,6.23
2018-12-04T16:00:09.381Z,6.25
2018-12-04T16:02:39.130Z,6.27
2018-12-04T16:05:09.893Z,6.29
2018-12-04T16:07:40.085Z,6.32
2018-12-04T16:10:12.612Z,6.35
2018-12-04T16:12:42.216Z,6.39
2018-12-04T16:15:11.568Z,6.41
2018-12-04T16:17:40.865Z,6.40
2018-12-04T16:20:10.466Z,6.40
2018-12-04T16:22:39.926Z,6.42
2018-12-04T16:25:10.284Z,6.41
2018-12-04T16:27:39.794Z,6.38
2018-12-04T16:30:10.179Z,6.32
2018-12-04T16:32:39.749Z,6.27
2018-12-04T16:35:09.422Z,6.23
2018-12-04T16:37:38.855Z,6.17
2018-12-04T16:40:09.026Z,6.14
2018-12-04T16:42:40.745Z,6.07
2018-12-04T16:45:11.026Z,6.02
2018-12-04T16:47:41.134Z,5.97
2018-12-04T16:50:12.683Z,5.94
2018-12-04T16:52:42.286Z,5.90
2018-12-04T16:55:11.691Z,5.88
2018-12-04T16:57:41.468Z,5.89
2018-12-04T17:00:11.369Z,5.87
2018-12-04T17:02:40.834Z,5.83
2018-12-04T17:05:10.787Z,5.79
2018-12-04T17:07:40.356Z,5.78
2018-12-04T17:10:09.869Z,5.78
2018-12-04T17:12:39.711Z,5.78
2018-12-04T17:15:09.714Z,5.73
2018-12-04T17:17:39.560Z,5.70
2018-12-04T17:20:09.323Z,5.70
2018-12-04T17:22:38.980Z,5.70
2018-12-04T17:25:08.875Z,5.67
2018-12-04T17:27:38.621Z,5.63
2018-12-04T17:30:10.357Z,5.65
2018-12-04T17:32:41.287Z,5.64
2018-12-04T17:35:10.878Z,5.65
2018-12-04T17:37:40.260Z,5.66
2018-12-04T17:40:09.678Z,5.67
2018-12-04T17:42:38.992Z,5.68
2018-12-04T17:45:08.438Z,5.67
2018-12-04T17:47:40.958Z,5.64
2018-12-04T17:50:12.054Z,5.61
2018-12-04T17:52:41.463Z,5.58
2018-12-04T17:55:10.905Z,5.59
2018-12-04T17:57:40.370Z,5.53
2018-12-04T18:00:11.997Z,5.51
2018-12-04T18:02:41.408Z,5.48
2018-12-04T18:05:11.291Z,5.48
2018-12-04T18:07:40.718Z,5.42
2018-12-04T18:10:11.736Z,5.42
2018-12-04T18:12:41.121Z,5.40
2018-12-04T18:15:11.531Z,5.40
2018-12-04T18:17:40.935Z,5.37
2018-12-04T18:20:10.521Z,5.35
2018-12-04T18:22:39.988Z,5.33
2018-12-04T18:25:09.243Z,5.31
2018-12-04T18:27:39.254Z,5.27
2018-12-04T18:30:09.052Z,5.20
2018-12-04T18:32:38.491Z,5.19
2018-12-04T18:35:08.248Z,5.14
2018-12-04T18:37:38.996Z,5.12
2018-12-04T18:40:08.650Z,5.09
2018-12-04T18:42:38.130Z,5.08
2018-12-04T18:45:08.757Z,5.06
2018-12-04T18:50:21.760Z,5.04
2018-12-04T18:52:51.131Z,5.02
2018-12-04T18:55:23.536Z,5.03
2018-12-04T18:57:52.979Z,4.99
2018-12-04T19:00:22.480Z,4.98
2018-12-04T19:02:52.144Z,4.95
2018-12-04T19:05:21.603Z,4.95
2018-12-04T19:07:51.515Z,4.92
2018-12-04T19:10:25.705Z,4.89
2018-12-04T19:12:57.159Z,4.87
2018-12-04T19:15:27.947Z,4.87
2018-12-04T19:17:57.329Z,4.86
2018-12-04T19:20:26.711Z,4.89
2018-12-04T19:22:56.173Z,4.87
2018-12-04T19:25:25.653Z,4.88
2018-12-04T19:27:55.498Z,4.87
2018-12-04T19:30:24.999Z,4.86
2018-12-04T19:32:54.496Z,4.85
2018-12-04T19:35:23.787Z,4.84
2018-12-04T19:37:53.576Z,4.86
2018-12-04T19:40:22.900Z,4.84
2018-12-04T19:42:54.378Z,4.83
2018-12-04T19:45:23.717Z,4.84
2018-12-04T19:47:53.628Z,4.85
2018-12-04T19:50:23.135Z,4.85
2018-12-04T19:52:53.212Z,4.84
2018-12-04T19:55:22.746Z,4.82
2018-12-04T20:00:45.056Z,4.80
2018-12-04T20:03:16.926Z,4.82
2018-12-04T20:05:48.188Z,4.81
2018-12-04T20:08:18.308Z,4.80
2018-12-04T20:10:48.118Z,4.76
2018-12-04T20:13:17.618Z,4.76
2018-12-04T20:15:47.064Z,4.74
2018-12-04T20:18:16.430Z,4.70
2018-12-04T20:20:45.886Z,4.66
2018-12-04T20:23:15.377Z,4.63
2018-12-04T20:25:46.274Z,4.58
2018-12-04T20:28:15.684Z,4.58
2018-12-04T20:30:45.121Z,4.58
2018-12-04T20:33:14.476Z,4.57
2018-12-04T20:35:43.782Z,4.56
2018-12-04T20:38:13.597Z,4.54
2018-12-04T20:59:19.748Z,4.47
2018-12-04T21:01:52.765Z,4.47
2018-12-04T21:04:33.939Z,4.47
2018-12-04T21:07:06.493Z,4.47
2018-12-04T21:09:36.723Z,4.48
2018-12-04T21:12:06.986Z,4.48
2018-12-04T21:14:42.264Z,4.48
2018-12-04T21:17:11.885Z,4.47
2018-12-04T21:19:41.585Z,4.47
2018-12-04T21:22:13.352Z,4.45
2018-12-04T21:24:42.752Z,4.43
2018-12-04T21:27:17.725Z,4.41
2018-12-04T21:29:54.770Z,4.38
2018-12-04T21:32:29.827Z,4.31
2018-12-04T21:35:04.448Z,4.25
2018-12-04T21:37:39.966Z,4.19
2018-12-04T21:40:14.686Z,4.15
2018-12-04T21:42:56.828Z,4.14
2018-12-04T21:45:35.800Z,4.12
2018-12-04T21:48:08.031Z,4.12
2018-12-04T21:50:37.875Z,4.11
2018-12-04T21:53:08.084Z,4.13
2018-12-04T21:55:37.454Z,4.13
2018-12-04T21:58:06.903Z,4.14
2018-12-04T22:00:36.628Z,4.15
2018-12-04T22:03:12.806Z,4.15
2018-12-04T22:05:42.486Z,4.17
2018-12-04T22:08:12.608Z,4.20
2018-12-04T22:10:42.151Z,4.19
2018-12-04T22:13:11.667Z,4.20
2018-12-04T22:15:41.756Z,4.20
2018-12-04T22:18:12.928Z,4.18
2018-12-04T22:20:43.708Z,4.18
2018-12-04T22:23:13.505Z,4.17
2018-12-04T22:25:49.246Z,4.16
2018-12-04T22:28:23.840Z,4.15
2018-12-04T22:30:54.605Z,4.12
2018-12-04T22:33:25.357Z,4.11
2018-12-04T22:35:55.577Z,4.11
2018-12-04T22:38:28.806Z,4.09
2018-12-04T22:40:58.763Z,4.07
2018-12-04T22:43:36.335Z,4.08
2018-12-04T22:46:06.262Z,4.03
2018-12-04T22:48:38.713Z,4.04
2018-12-04T22:51:10.199Z,4.03
2018-12-04T22:53:39.685Z,4.03
2018-12-04T22:56:10.100Z,4.02
2018-12-04T22:58:39.395Z,3.99
2018-12-04T23:01:08.916Z,3.97
2018-12-04T23:03:39.310Z,3.99
2018-12-04T23:06:08.597Z,3.99
2018-12-04T23:08:40.156Z,3.98
2018-12-04T23:11:10.045Z,3.98
2018-12-04T23:13:40.807Z,4.00
2018-12-04T23:16:10.206Z,4.03
2018-12-04T23:18:39.638Z,4.03
2018-12-04T23:21:08.940Z,4.05
2018-12-04T23:23:38.240Z,4.06
2018-12-04T23:26:07.835Z,4.07
2018-12-04T23:28:38.447Z,4.10
2018-12-04T23:31:09.060Z,4.10
2018-12-04T23:33:38.616Z,4.11
2018-12-04T23:36:08.515Z,4.11
2018-12-04T23:38:39.007Z,4.10
2018-12-04T23:41:08.452Z,4.10
2018-12-04T23:43:37.757Z,4.11
2018-12-04T23:46:07.257Z,4.12
2018-12-04T23:48:38.887Z,4.15
2018-12-04T23:51:09.684Z,4.18
2018-12-04T23:53:39.050Z,4.20
2018-12-04T23:56:08.900Z,4.25
2018-12-04T23:58:38.512Z,4.31
